Time;durP1;ratioP1;P1;durP2;ratioP2;P2;SDS_P1;SDS_P2;PMS_P1;PMS_P2;Temp;Humidity;BMP_temperature;BMP_pressure;BME280_temperature;BME280_humidity;BME280_pressure;Samples;Min_cycle;Max_cycle;Signal;HPM_P1;HPM_P2
2023/08/03 00:04:29;;;;;;;3.80;0.52;;;;;;;21.20;58.99;98486.84;10505839;28;20119;-70
2023/08/03 00:09:30;;;;;;;3.38;0.30;;;;;;;21.08;58.83;98489.19;10508864;28;20040;-70
2023/08/03 00:14:32;;;;;;;4.53;0.63;;;;;;;21.04;58.78;98493.59;10509936;28;20054;-72
2023/08/03 00:19:33;;;;;;;4.35;0.30;;;;;;;21.02;58.55;98497.75;10505978;28;20041;-71
2023/08/03 00:24:35;;;;;;;6.95;0.95;;;;;;;21.06;58.04;98487.84;10506544;28;20386;-71
2023/08/03 00:29:37;;;;;;;3.88;0.25;;;;;;;21.13;57.34;98491.03;10504070;28;20054;-72
2023/08/03 00:34:38;;;;;;;3.20;0.40;;;;;;;21.23;56.94;98481.91;10508604;28;20123;-71
2023/08/03 00:39:40;;;;;;;2.65;0.20;;;;;;;21.32;56.26;98480.97;10508350;28;20120;-71
2023/08/03 00:44:41;;;;;;;6.20;0.20;;;;;;;21.38;55.63;98500.84;10507038;28;20044;-71
2023/08/03 00:49:42;;;;;;;3.90;0.20;;;;;;;21.44;55.31;98493.44;10508630;28;20107;-71
2023/08/03 00:54:44;;;;;;;2.25;0.30;;;;;;;21.47;55.08;98503.78;10506876;28;20098;-71
2023/08/03 00:59:46;;;;;;;3.42;0.20;;;;;;;21.51;54.85;98504.81;10506287;28;20056;-72
2023/08/03 01:04:48;;;;;;;1.75;0.30;;;;;;;21.53;54.73;98497.13;10506355;28;20396;-71
2023/08/03 01:09:50;;;;;;;4.63;0.30;;;;;;;21.48;54.58;98484.34;10504955;28;20058;-72
2023/08/03 01:14:52;;;;;;;2.03;0.30;;;;;;;21.45;54.69;98490.41;10507310;28;20071;-72
2023/08/03 01:19:53;;;;;;;2.10;0.43;;;;;;;21.42;54.42;98490.94;10506221;28;20037;-72
2023/08/03 01:24:55;;;;;;;2.72;0.20;;;;;;;21.43;53.95;98495.34;10506976;28;20116;-71
2023/08/03 01:29:56;;;;;;;3.10;0.10;;;;;;;21.42;54.34;98496.41;10505418;28;20071;-71
2023/08/03 01:34:59;;;;;;;1.80;0.20;;;;;;;21.40;54.44;98493.16;10502717;28;20290;-71
2023/08/03 01:40:03;;;;;;;0.50;0.10;;;;;;;21.40;54.02;98504.09;10501772;28;20104;-72
2023/08/03 01:45:06;;;;;;;1.08;0.20;;;;;;;21.37;54.29;98488.31;10504062;28;20087;-72
2023/08/03 01:50:07;;;;;;;3.17;0.20;;;;;;;21.36;54.03;98514.00;10505956;28;20052;-71
2023/08/03 01:55:09;;;;;;;1.65;0.10;;;;;;;21.26;54.56;98525.84;10504992;28;20048;-70
2023/08/03 02:00:11;;;;;;;3.42;0.10;;;;;;;21.17;54.22;98516.69;10503356;28;20058;-71
2023/08/03 02:05:13;;;;;;;4.25;0.20;;;;;;;21.08;54.39;98532.91;10503989;28;20082;-72
2023/08/03 02:10:15;;;;;;;1.70;0.10;;;;;;;21.00;54.82;98549.94;10505992;28;20047;-73
2023/08/03 02:15:17;;;;;;;3.33;0.20;;;;;;;20.86;55.44;98536.13;10504692;28;20063;-71
2023/08/03 02:20:18;;;;;;;2.83;0.10;;;;;;;20.78;55.55;98534.84;10504803;28;20226;-70
2023/08/03 02:25:23;;;;;;;2.90;0.20;;;;;;;20.74;55.80;98528.31;10504585;28;20158;-71
2023/08/03 02:30:25;;;;;;;1.10;0.10;;;;;;;20.85;55.79;98537.22;10504918;28;20045;-71
2023/08/03 02:35:26;;;;;;;1.60;0.47;;;;;;;20.57;57.56;98541.56;10504029;28;20921;-72
2023/08/03 02:40:28;;;;;;;1.65;0.10;;;;;;;19.78;61.09;98536.94;10503560;28;20287;-71
2023/08/03 02:45:29;;;;;;;3.17;0.38;;;;;;;19.41;62.72;98565.44;10503535;28;20052;-70
2023/08/03 02:50:30;;;;;;;0.82;0.08;;;;;;;19.09;64.08;98565.78;10509549;28;20114;-71
2023/08/03 02:55:32;;;;;;;3.25;0.85;;;;;;;18.94;64.62;98576.72;10510414;28;20313;-71
2023/08/03 03:00:33;;;;;;;3.08;0.10;;;;;;;18.87;65.25;98584.34;10510330;28;20040;-71
2023/08/03 03:05:35;;;;;;;0.55;0.10;;;;;;;18.88;65.27;98581.34;10511193;28;20052;-72
2023/08/03 03:10:36;;;;;;;3.72;0.10;;;;;;;18.87;65.66;98576.19;10510852;28;20055;-71
2023/08/03 03:15:37;;;;;;;1.85;0.10;;;;;;;18.95;65.53;98579.16;10508417;28;20072;-71
2023/08/03 03:20:39;;;;;;;2.05;0.10;;;;;;;18.99;65.50;98582.97;10508650;28;20094;-71
2023/08/03 03:25:40;;;;;;;2.47;0.70;;;;;;;19.01;65.61;98596.31;10510535;28;20276;-72
2023/08/03 03:30:42;;;;;;;0.38;0.10;;;;;;;19.03;65.82;98586.75;10510199;28;20068;-71
2023/08/03 03:35:43;;;;;;;1.17;0.22;;;;;;;18.94;66.31;98598.50;10510867;28;20059;-71
2023/08/03 03:40:45;;;;;;;1.80;0.15;;;;;;;18.78;67.22;98600.41;10511110;28;20099;-71
2023/08/03 03:45:46;;;;;;;2.00;0.20;;;;;;;18.77;67.12;98599.56;10510655;28;20052;-71
2023/08/03 03:50:47;;;;;;;1.45;0.20;;;;;;;18.74;67.29;98611.00;10511063;28;20453;-71
2023/08/03 03:55:49;;;;;;;1.20;0.20;;;;;;;18.71;67.53;98619.72;10508906;28;20326;-70
2023/08/03 04:00:50;;;;;;;1.77;0.20;;;;;;;18.77;67.31;98632.22;10509003;28;20052;-70
2023/08/03 04:05:52;;;;;;;1.95;0.40;;;;;;;18.77;67.26;98634.94;10508996;28;20072;-70
2023/08/03 04:10:54;;;;;;;2.03;0.70;;;;;;;18.71;67.45;98633.31;10506588;28;20040;-70
2023/08/03 04:15:55;;;;;;;2.10;0.20;;;;;;;18.55;68.16;98623.53;10508945;28;20093;-69
2023/08/03 04:20:56;;;;;;;3.17;0.30;;;;;;;18.34;68.52;98618.03;10509037;28;20052;-69
2023/08/03 04:25:59;;;;;;;3.85;0.57;;;;;;;18.30;68.85;98616.13;10507708;28;20352;-69
2023/08/03 04:31:00;;;;;;;2.83;0.30;;;;;;;18.36;68.37;98621.31;10508087;28;20096;-69
2023/08/03 04:36:02;;;;;;;4.00;0.55;;;;;;;18.46;67.83;98622.41;10508181;28;20089;-70
2023/08/03 04:41:03;;;;;;;1.15;0.10;;;;;;;18.56;67.37;98627.84;10509168;28;20435;-69
2023/08/03 04:46:05;;;;;;;1.98;0.20;;;;;;;18.61;67.14;98633.31;10505951;28;20048;-70
2023/08/03 04:51:06;;;;;;;1.70;0.20;;;;;;;18.71;66.61;98638.75;10507886;28;20060;-70
2023/08/03 04:56:07;;;;;;;1.13;0.10;;;;;;;18.80;66.11;98630.91;10504740;28;20160;-70
2023/08/03 05:01:09;;;;;;;6.25;0.43;;;;;;;18.96;65.67;98637.19;10505973;28;20044;-70
2023/08/03 05:06:10;;;;;;;2.42;0.20;;;;;;;18.90;65.94;98644.53;10508391;28;20047;-69
2023/08/03 05:11:12;;;;;;;1.38;0.30;;;;;;;18.74;66.80;98654.56;10506548;28;20040;-70
2023/08/03 05:16:18;;;;;;;4.72;0.30;;;;;;;18.58;67.04;98661.91;10505953;28;20114;-70
2023/08/03 05:21:20;;;;;;;1.33;0.10;;;;;;;18.62;67.02;98654.84;10504011;28;20369;-70
2023/08/03 05:26:21;;;;;;;4.28;0.20;;;;;;;18.59;66.94;98657.28;10506451;28;20400;-69
2023/08/03 05:31:23;;;;;;;4.00;0.20;;;;;;;18.69;66.81;98670.88;10506448;28;20108;-69
2023/08/03 05:36:24;;;;;;;4.07;0.22;;;;;;;18.77;66.43;98670.34;10504983;28;20048;-70
2023/08/03 05:41:27;;;;;;;1.77;0.20;;;;;;;18.85;66.14;98669.03;10506468;28;20086;-69
2023/08/03 05:46:32;;;;;;;2.38;0.17;;;;;;;18.79;66.39;98673.63;10508845;28;20046;-69
2023/08/03 05:51:33;;;;;;;3.72;0.17;;;;;;;18.88;66.06;98678.53;10509530;28;20044;-69
2023/08/03 05:56:35;;;;;;;4.15;0.10;;;;;;;18.94;65.94;98686.47;10504420;28;20112;-68
2023/08/03 06:01:37;;;;;;;1.85;0.20;;;;;;;18.93;65.84;98692.97;10503929;28;20067;-69
2023/08/03 06:06:39;;;;;;;2.42;0.13;;;;;;;19.06;65.74;98693.53;10505484;28;20343;-69
2023/08/03 06:11:40;;;;;;;4.50;0.20;;;;;;;19.06;65.72;98686.19;10504758;28;20056;-70
2023/08/03 06:16:44;;;;;;;3.38;0.20;;;;;;;19.18;65.31;98686.72;10504271;28;20048;-70
2023/08/03 06:21:45;;;;;;;2.35;0.17;;;;;;;19.34;64.87;98692.16;10502941;28;20091;-70
2023/08/03 06:26:47;;;;;;;1.40;0.40;;;;;;;19.54;64.59;98700.28;10503286;28;20040;-70
2023/08/03 06:31:49;;;;;;;3.78;0.95;;;;;;;19.66;64.19;98699.19;10504236;28;22059;-70
2023/08/03 06:36:52;;;;;;;1.17;0.20;;;;;;;19.77;64.00;98695.38;10501629;28;20111;-69
2023/08/03 06:41:54;;;;;;;1.75;0.20;;;;;;;19.51;64.54;98705.47;10504481;28;20354;-69
2023/08/03 06:46:55;;;;;;;1.85;0.60;;;;;;;19.48;64.26;98723.19;10501477;28;20048;-69
2023/08/03 06:51:57;;;;;;;4.43;0.30;;;;;;;19.52;63.96;98742.53;10503189;28;20075;-69
2023/08/03 06:56:58;;;;;;;2.90;0.20;;;;;;;19.66;63.67;98762.69;10503120;28;20054;-69
2023/08/03 07:01:59;;;;;;;0.75;0.15;;;;;;;19.65;63.10;98771.13;10500463;28;20033;-69
2023/08/03 07:07:01;;;;;;;2.30;0.65;;;;;;;19.58;62.95;98766.78;10502725;28;20044;-70
2023/08/03 07:12:08;;;;;;;2.95;0.28;;;;;;;19.67;62.70;98785.31;10502052;28;20067;-69
2023/08/03 07:17:10;;;;;;;1.17;0.10;;;;;;;19.64;63.05;98803.03;10501839;28;20067;-70
2023/08/03 07:22:11;;;;;;;3.10;0.30;;;;;;;19.57;63.22;98810.69;10504294;28;20059;-70
2023/08/03 07:27:14;;;;;;;2.95;0.20;;;;;;;19.64;63.06;98821.31;10501604;28;20059;-69
2023/08/03 07:32:15;;;;;;;2.83;0.30;;;;;;;19.64;63.37;98845.84;10503309;28;20341;-68
2023/08/03 07:37:17;;;;;;;4.03;0.30;;;;;;;19.34;64.70;98858.38;10507665;28;20394;-70
2023/08/03 07:42:18;;;;;;;3.03;0.30;;;;;;;19.04;65.58;98870.84;10508756;28;20049;-70
2023/08/03 07:47:20;;;;;;;1.60;0.10;;;;;;;18.68;66.84;98886.19;10508588;28;20048;-69
2023/08/03 07:52:22;;;;;;;2.30;0.20;;;;;;;18.57;67.12;98877.97;10510952;28;20279;-71
2023/08/03 07:57:23;;;;;;;4.05;0.40;;;;;;;18.49;67.42;98892.09;10509540;28;20083;-71
2023/08/03 08:02:25;;;;;;;0.85;0.20;;;;;;;18.55;67.31;98871.97;10507841;28;20256;-71
2023/08/03 08:07:26;;;;;;;1.67;0.50;;;;;;;18.70;66.81;98875.84;10510498;28;20356;-70
2023/08/03 08:12:28;;;;;;;1.27;0.20;;;;;;;18.91;66.50;98872.16;10507095;28;20087;-71
2023/08/03 08:17:29;;;;;;;3.40;0.20;;;;;;;19.15;65.86;98864.31;10507488;28;20111;-70
2023/08/03 08:22:30;;;;;;;1.73;0.43;;;;;;;19.32;65.78;98866.00;10508252;28;20044;-71
2023/08/03 08:27:32;;;;;;;3.55;0.15;;;;;;;19.39;65.43;98875.56;10507888;28;20370;-70
2023/08/03 08:32:33;;;;;;;2.30;0.30;;;;;;;19.47;65.34;98876.09;10506703;28;20055;-70
2023/08/03 08:37:35;;;;;;;2.78;0.10;;;;;;;19.51;65.00;98883.47;10506212;28;20230;-71
2023/08/03 08:42:37;;;;;;;2.85;0.30;;;;;;;19.67;64.58;98897.94;10509192;28;20071;-71
2023/08/03 08:47:38;;;;;;;2.05;0.20;;;;;;;19.72;64.04;98900.66;10508133;28;20060;-71
2023/08/03 08:52:43;;;;;;;1.60;0.10;;;;;;;19.85;63.41;98895.78;10508475;28;20040;-71
2023/08/03 08:57:47;;;;;;;0.98;0.10;;;;;;;19.95;63.64;98902.03;10503666;28;20095;-71
2023/08/03 09:02:56;;;;;;;2.65;0.35;;;;;;;19.90;63.45;98899.31;10506109;28;20076;-71
2023/08/03 09:08:03;;;;;;;7.17;0.77;;;;;;;19.99;63.56;98916.78;10497058;28;20374;-70
2023/08/03 09:13:04;;;;;;;2.55;0.13;;;;;;;19.92;63.47;98910.75;10506146;28;20049;-70
2023/08/03 09:18:07;;;;;;;3.28;0.20;;;;;;;19.92;63.09;98915.41;10506729;28;20052;-70
2023/08/03 09:23:08;;;;;;;2.85;1.50;;;;;;;19.72;64.16;98929.84;10505667;28;20040;-71
2023/08/03 09:28:13;;;;;;;3.13;0.20;;;;;;;19.04;66.60;98936.22;10505174;28;20088;-72
2023/08/03 09:33:17;;;;;;;0.40;0.20;;;;;;;18.49;68.92;98946.50;10504605;28;20044;-72
2023/08/03 09:38:23;;;;;;;4.68;0.30;;;;;;;18.07;71.02;98949.19;10502694;28;20079;-73
2023/08/03 09:43:26;;;;;;;1.77;0.30;;;;;;;17.96;71.72;98951.03;10507162;28;20049;-72
2023/08/03 09:48:31;;;;;;;4.10;0.20;;;;;;;17.96;72.23;98967.34;10503254;28;20056;-70
2023/08/03 09:53:37;;;;;;;4.03;0.22;;;;;;;18.04;72.23;98966.84;10502673;28;20036;-72
2023/08/03 09:58:45;;;;;;;3.67;0.20;;;;;;;18.09;72.48;98955.19;10504827;28;20052;-72
2023/08/03 10:03:55;;;;;;;1.70;0.20;;;;;;;18.22;72.28;98969.16;10499593;28;20055;-71
2023/08/03 10:09:05;;;;;;;5.38;0.90;;;;;;;18.41;72.01;98969.59;10502009;28;20064;-72
2023/08/03 10:14:11;;;;;;;2.55;0.22;;;;;;;18.67;71.47;98977.09;10504112;28;20040;-71
2023/08/03 10:19:15;;;;;;;0.50;0.20;;;;;;;19.01;70.41;98983.84;10505106;28;20040;-71
2023/08/03 10:24:18;;;;;;;2.83;0.20;;;;;;;19.24;69.81;99000.03;10504438;28;20041;-71
2023/08/03 10:29:50;;;;;;;0.80;0.10;;;;;;;19.49;69.18;98997.41;10503374;28;20048;-71
2023/08/03 10:34:58;;;;;;;0.63;0.10;;;;;;;19.76;67.82;98999.94;10505982;28;20044;-71
2023/08/03 10:40:00;;;;;;;0.75;0.10;;;;;;;19.81;67.91;99010.03;10504575;28;20045;-71
2023/08/03 10:45:20;;;;;;;3.70;0.22;;;;;;;19.85;67.86;99027.50;10503125;28;20048;-71
2023/08/03 10:50:57;;;;;;;1.08;0.20;;;;;;;19.36;69.76;99034.13;10502542;28;20056;-72
2023/08/03 10:56:07;;;;;;;1.02;0.10;;;;;;;19.09;70.44;99037.00;10503824;28;20049;-73
2023/08/03 11:01:08;;;;;;;3.72;0.20;;;;;;;19.09;70.71;99038.91;10499312;28;20105;-72
2023/08/03 11:06:10;;;;;;;0.90;0.22;;;;;;;19.25;70.27;99037.88;10502652;28;20045;-72
2023/08/03 11:11:12;;;;;;;1.65;0.40;;;;;;;19.31;70.11;99049.63;10504620;28;20081;-71
2023/08/03 11:16:15;;;;;;;1.98;0.30;;;;;;;19.26;71.13;99055.88;10511672;28;20303;-73
2023/08/03 11:21:16;;;;;;;2.30;0.20;;;;;;;18.91;72.05;99059.22;10510915;28;20048;-72
2023/08/03 11:26:18;;;;;;;0.50;0.10;;;;;;;18.75;72.59;99061.00;10508907;28;20101;-72
2023/08/03 11:31:21;;;;;;;1.85;0.20;;;;;;;18.65;73.15;99067.19;10509882;28;20405;-72
2023/08/03 11:36:23;;;;;;;1.13;0.10;;;;;;;18.77;73.01;99064.28;10506313;28;20055;-72
2023/08/03 11:41:24;;;;;;;1.45;0.20;;;;;;;18.88;72.81;99076.94;10511604;28;20295;-72
2023/08/03 11:46:29;;;;;;;3.53;0.13;;;;;;;18.99;72.61;99078.63;10511012;28;20240;-72
2023/08/03 11:51:32;;;;;;;3.35;0.30;;;;;;;19.04;72.86;99086.00;10510416;28;20037;-72
2023/08/03 11:56:34;;;;;;;1.65;0.10;;;;;;;18.95;72.98;99101.19;10509443;28;20097;-72
2023/08/03 12:01:47;;;;;;;2.17;0.20;;;;;;;18.88;73.34;99097.88;10508673;28;20242;-72
2023/08/03 12:06:52;;;;;;;1.52;0.20;;;;;;;18.95;73.30;99096.56;10507524;28;20044;-72
2023/08/03 12:12:04;;;;;;;1.75;0.45;;;;;;;19.08;73.24;99099.94;10507864;28;20371;-72
2023/08/03 12:17:14;;;;;;;0.65;0.10;;;;;;;19.24;73.11;99096.22;10507900;28;20052;-71
2023/08/03 12:22:15;;;;;;;0.85;0.17;;;;;;;18.69;74.98;99103.69;10508847;28;20033;-71
2023/08/03 12:27:17;;;;;;;0.75;0.10;;;;;;;18.41;75.91;99108.38;10510846;28;20071;-71
2023/08/03 12:32:24;;;;;;;0.55;0.10;;;;;;;18.18;76.80;99122.28;10513218;28;20040;-71
2023/08/03 12:37:25;;;;;;;0.73;0.20;;;;;;;18.03;77.40;99118.34;10511252;28;20041;-71
2023/08/03 12:42:27;;;;;;;0.73;0.20;;;;;;;18.16;77.97;99113.56;10509720;28;20345;-70
2023/08/03 12:47:33;;;;;;;0.20;0.10;;;;;;;18.48;77.87;99108.13;10507759;28;20104;-71
2023/08/03 12:52:37;;;;;;;1.30;0.20;;;;;;;18.95;77.83;99107.44;10506491;28;20294;-71
2023/08/03 12:57:39;;;;;;;0.57;0.10;;;;;;;19.07;77.95;99111.91;10507574;28;20293;-70
2023/08/03 13:02:40;;;;;;;1.48;0.10;;;;;;;19.05;77.71;99114.88;10507417;28;20119;-71
2023/08/03 13:07:43;;;;;;;1.95;0.28;;;;;;;19.16;77.13;99119.31;10503793;28;20359;-71
2023/08/03 13:12:44;;;;;;;2.05;0.20;;;;;;;18.83;77.81;99123.97;10503852;28;20293;-71
2023/08/03 13:17:45;;;;;;;0.25;0.15;;;;;;;18.54;78.72;99133.50;10503160;28;20128;-70
2023/08/03 13:22:47;;;;;;;0.30;0.30;;;;;;;18.45;79.27;99145.97;10506383;28;20592;-70
2023/08/03 13:27:49;;;;;;;0.73;0.40;;;;;;;18.61;79.32;99142.28;10505019;28;20103;-70
2023/08/03 13:32:51;;;;;;;0.70;0.40;;;;;;;18.91;79.16;99139.03;10506936;28;20051;-69
2023/08/03 13:37:53;;;;;;;0.90;0.40;;;;;;;18.98;78.99;99141.53;10507062;28;20060;-71
2023/08/03 13:42:54;;;;;;;0.98;0.40;;;;;;;18.91;78.84;99149.91;10505702;28;20041;-70
2023/08/03 13:47:55;;;;;;;3.00;0.35;;;;;;;18.97;78.63;99148.06;10504936;28;20111;-71
2023/08/03 13:52:57;;;;;;;11.10;0.80;;;;;;;18.95;78.33;99144.78;10506233;28;20037;-69
2023/08/03 13:57:59;;;;;;;2.38;0.40;;;;;;;19.10;77.90;99157.69;10505045;28;20280;-70
2023/08/03 14:03:06;;;;;;;2.17;0.30;;;;;;;19.10;77.55;99165.88;10502626;28;20377;-72
2023/08/03 14:08:08;;;;;;;0.50;0.10;;;;;;;20.04;77.09;99179.75;10503782;28;20412;-72
2023/08/03 14:13:10;;;;;;;0.40;0.10;;;;;;;21.05;75.86;99170.13;10498701;28;20044;-72
2023/08/03 14:18:11;;;;;;;0.17;0.10;;;;;;;21.33;75.35;99171.44;10503704;28;20049;-71
2023/08/03 14:23:18;;;;;;;0.10;0.10;;;;;;;21.54;74.03;99175.00;10503751;28;20064;-71
2023/08/03 14:28:22;;;;;;;1.85;0.10;;;;;;;21.68;72.87;99177.13;10505245;28;20063;-70
2023/08/03 14:33:26;;;;;;;0.25;0.05;;;;;;;21.83;71.31;99174.34;10504151;28;20119;-69
2023/08/03 14:38:28;;;;;;;0.70;0.10;;;;;;;21.76;71.13;99192.97;10501241;28;20064;-68
2023/08/03 14:43:30;;;;;;;0.10;0.08;;;;;;;21.64;70.77;99181.53;10505498;28;20055;-68
2023/08/03 14:48:31;;;;;;;0.10;0.00;;;;;;;21.99;69.95;99192.34;10513348;28;20109;-68
2023/08/03 14:53:35;;;;;;;0.70;0.10;;;;;;;23.28;68.82;99194.28;10514891;28;20051;-69
2023/08/03 14:58:37;;;;;;;0.30;0.10;;;;;;;23.30;67.73;99198.38;10511315;28;20067;-69
2023/08/03 15:03:43;;;;;;;0.00;0.00;;;;;;;22.95;65.64;99204.97;10512175;28;20056;-69
2023/08/03 15:08:45;;;;;;;0.40;0.08;;;;;;;22.96;64.93;99215.63;10512601;28;20041;-68
2023/08/03 15:13:47;;;;;;;0.00;0.00;;;;;;;23.07;63.35;99221.06;10513595;28;20099;-68
2023/08/03 15:18:48;;;;;;;0.00;0.00;;;;;;;23.11;61.71;99219.38;10508624;28;20049;-68
2023/08/03 15:23:57;;;;;;;0.47;0.00;;;;;;;23.10;61.77;99215.00;10509043;28;20048;-69
2023/08/03 15:29:02;;;;;;;1.33;0.10;;;;;;;22.82;62.16;99231.06;10512064;28;20111;-68
2023/08/03 15:34:06;;;;;;;0.05;0.00;;;;;;;22.44;62.67;99236.25;10509048;28;20098;-68
2023/08/03 15:39:08;;;;;;;0.40;0.10;;;;;;;21.75;64.66;99237.84;10510594;28;20051;-68
2023/08/03 15:44:12;;;;;;;0.20;0.10;;;;;;;21.38;66.06;99255.38;10509429;28;20063;-70
2023/08/03 15:49:17;;;;;;;0.20;0.10;;;;;;;20.03;69.99;99284.53;10512035;28;20107;-71
2023/08/03 15:54:23;;;;;;;0.10;0.10;;;;;;;19.22;72.41;99286.38;10509087;28;20056;-73
2023/08/03 15:59:30;;;;;;;;;;;;;;;18.98;73.09;99277.72;10509282;28;20665;-70
2023/08/03 16:04:32;;;;;;;0.20;0.10;;;;;;;18.91;73.03;99280.63;10508672;28;19924;-72
2023/08/03 16:09:33;;;;;;;1.40;0.10;;;;;;;18.93;73.98;99283.91;10510252;28;20044;-71
2023/08/03 16:14:35;;;;;;;1.17;0.20;;;;;;;19.03;73.81;99275.03;10507805;28;20500;-69
2023/08/03 16:19:38;;;;;;;1.65;0.10;;;;;;;19.11;74.22;99280.00;10510080;28;20040;-70
2023/08/03 16:24:40;;;;;;;0.47;0.20;;;;;;;19.16;74.60;99288.22;10507976;28;20098;-71
2023/08/03 16:29:41;;;;;;;0.80;0.20;;;;;;;19.28;74.63;99288.06;10508557;28;20093;-71
2023/08/03 16:34:50;;;;;;;0.30;0.20;;;;;;;19.34;74.56;99300.66;10506947;28;20048;-71
2023/08/03 16:39:55;;;;;;;1.38;0.20;;;;;;;19.43;74.48;99295.53;10504681;28;20189;-71
2023/08/03 16:44:58;;;;;;;0.52;0.20;;;;;;;19.53;74.29;99306.53;10506239;28;20093;-70
2023/08/03 16:49:59;;;;;;;0.55;0.20;;;;;;;19.53;74.42;99306.53;10508112;28;20352;-71
2023/08/03 16:55:01;;;;;;;1.35;0.15;;;;;;;19.70;74.16;99313.72;10504993;28;20108;-71
2023/08/03 17:00:03;;;;;;;1.42;0.20;;;;;;;19.68;74.76;99311.25;10505789;28;20082;-72
2023/08/03 17:05:06;;;;;;;0.60;0.20;;;;;;;19.82;74.04;99322.56;10505609;28;20040;-71
2023/08/03 17:10:09;;;;;;;1.20;0.10;;;;;;;19.94;73.73;99325.09;10508452;28;20055;-70
2023/08/03 17:15:10;;;;;;;1.40;0.20;;;;;;;19.90;73.60;99330.25;10506507;28;20075;-71
2023/08/03 17:20:12;;;;;;;0.68;0.30;;;;;;;19.93;73.45;99339.84;10503974;28;20127;-72
2023/08/03 17:25:13;;;;;;;1.98;0.20;;;;;;;19.97;73.29;99340.97;10504263;28;20118;-72
2023/08/03 17:30:15;;;;;;;0.90;0.30;;;;;;;19.96;73.55;99350.22;10501171;28;20113;-71
2023/08/03 17:35:17;;;;;;;0.43;0.10;;;;;;;20.00;73.08;99349.44;10506171;28;20107;-72
2023/08/03 17:40:18;;;;;;;0.50;0.10;;;;;;;20.13;73.25;99359.06;10506007;28;20072;-72
2023/08/03 17:45:20;;;;;;;0.80;0.20;;;;;;;20.20;72.75;99369.72;10505420;28;20060;-72
2023/08/03 17:50:21;;;;;;;1.55;0.10;;;;;;;20.19;72.71;99371.66;10506082;28;20072;-71
2023/08/03 17:55:24;;;;;;;1.15;0.10;;;;;;;20.21;72.73;99371.38;10505807;28;20059;-71
2023/08/03 18:00:26;;;;;;;2.10;0.15;;;;;;;20.23;72.21;99387.50;10503705;28;20111;-70
2023/08/03 18:05:28;;;;;;;1.35;0.13;;;;;;;20.26;72.44;99387.81;10505991;28;20056;-70
2023/08/03 18:10:29;;;;;;;0.52;0.20;;;;;;;20.24;72.51;99400.91;10504610;28;20078;-71
2023/08/03 18:15:34;;;;;;;0.43;0.20;;;;;;;20.21;72.49;99415.88;10505644;28;20098;-70
2023/08/03 18:20:37;;;;;;;0.73;0.30;;;;;;;20.19;72.34;99420.75;10504975;28;20048;-69
2023/08/03 18:25:38;;;;;;;0.98;0.20;;;;;;;20.13;72.34;99426.47;10505213;28;20249;-70
2023/08/03 18:30:40;;;;;;;0.20;0.20;;;;;;;19.85;73.02;99427.63;10504038;28;20440;-70
2023/08/03 18:35:41;;;;;;;1.27;0.15;;;;;;;19.81;72.88;99430.84;10502699;28;20103;-70
2023/08/03 18:40:43;;;;;;;0.30;0.10;;;;;;;19.79;72.56;99433.00;10503892;28;20297;-71
2023/08/03 18:45:56;;;;;;;0.95;0.10;;;;;;;19.73;71.79;99431.31;10501872;28;20131;-71
2023/08/03 18:51:09;;;;;;;0.10;0.10;;;;;;;19.76;71.69;99438.97;10501978;28;20056;-70
2023/08/03 18:56:15;;;;;;;0.25;0.10;;;;;;;19.85;71.14;99447.53;10501687;28;20103;-72
2023/08/03 19:01:17;;;;;;;0.32;0.10;;;;;;;19.80;71.07;99451.00;10503287;28;20067;-71
2023/08/03 19:06:18;;;;;;;0.20;0.10;;;;;;;19.78;70.81;99463.25;10501962;28;20107;-71
2023/08/03 19:11:20;;;;;;;0.60;0.10;;;;;;;19.72;70.72;99459.66;10503052;28;20128;-71
2023/08/03 19:16:21;;;;;;;0.98;0.10;;;;;;;19.69;70.93;99470.22;10504085;28;20044;-71
2023/08/03 19:21:29;;;;;;;0.20;0.10;;;;;;;19.64;71.36;99476.47;10504104;28;20403;-70
2023/08/03 19:26:30;;;;;;;0.45;0.10;;;;;;;19.68;71.07;99483.03;10501915;28;20099;-71
2023/08/03 19:31:32;;;;;;;1.55;0.20;;;;;;;19.76;70.96;99481.78;10506180;28;20061;-71
2023/08/03 19:36:33;;;;;;;1.05;0.20;;;;;;;19.86;70.56;99500.97;10510330;28;20082;-72
2023/08/03 19:41:34;;;;;;;1.23;0.55;;;;;;;19.88;70.77;99500.72;10511369;28;20044;-72
2023/08/03 19:46:36;;;;;;;0.30;0.17;;;;;;;19.81;70.74;99492.75;10508422;28;20252;-71
2023/08/03 19:51:37;;;;;;;0.50;0.20;;;;;;;19.77;70.75;99494.34;10512114;28;20111;-73
2023/08/03 19:56:41;;;;;;;0.40;0.10;;;;;;;19.55;71.34;99487.03;10511242;28;20406;-72
2023/08/03 20:01:43;;;;;;;1.40;0.63;;;;;;;19.51;71.81;99485.88;10509108;28;20234;-72
2023/08/03 20:06:47;;;;;;;0.98;0.22;;;;;;;19.40;71.98;99484.94;10510606;28;20094;-73
2023/08/03 20:11:52;;;;;;;1.27;0.10;;;;;;;19.30;71.91;99495.72;10510812;28;20056;-72
2023/08/03 20:16:54;;;;;;;3.15;0.10;;;;;;;19.32;71.87;99504.47;10506755;28;20083;-72
2023/08/03 20:21:56;;;;;;;0.60;0.30;;;;;;;19.45;71.58;99513.31;10506840;28;20045;-72
2023/08/03 20:26:57;;;;;;;1.35;0.20;;;;;;;19.46;71.81;99521.25;10508412;28;20063;-72
2023/08/03 20:32:06;;;;;;;2.78;0.20;;;;;;;19.55;71.28;99538.81;10508356;28;20037;-71
2023/08/03 20:37:08;;;;;;;3.08;0.30;;;;;;;19.63;70.87;99545.72;10505173;28;20256;-71
2023/08/03 20:42:09;;;;;;;0.15;0.15;;;;;;;19.56;70.92;99548.63;10505960;28;20071;-70
2023/08/03 20:47:14;;;;;;;0.35;0.15;;;;;;;19.56;70.73;99543.19;10490720;28;20041;-70
2023/08/03 20:52:18;;;;;;;0.40;0.30;;;;;;;19.61;70.54;99556.88;10506420;28;20052;-71
2023/08/03 20:57:19;;;;;;;2.63;0.30;;;;;;;19.60;70.74;99557.13;10505215;28;20052;-71
2023/08/03 21:02:21;;;;;;;1.42;0.15;;;;;;;19.60;70.93;99560.66;10506587;28;20058;-72
2023/08/03 21:07:22;;;;;;;2.08;0.10;;;;;;;19.55;71.02;99557.06;10507165;28;20115;-71
2023/08/03 21:12:24;;;;;;;0.85;0.30;;;;;;;19.59;71.07;99559.03;10506281;28;20048;-71
2023/08/03 21:17:25;;;;;;;0.40;0.20;;;;;;;19.59;70.73;99558.22;10507025;28;20196;-71
2023/08/03 21:22:27;;;;;;;0.75;0.20;;;;;;;19.58;70.87;99554.66;10507210;28;20068;-71
2023/08/03 21:27:30;;;;;;;0.43;0.30;;;;;;;19.47;71.15;99561.09;10505662;28;20076;-72
2023/08/03 21:32:31;;;;;;;0.32;0.20;;;;;;;19.48;71.18;99568.16;10505990;28;20241;-69
2023/08/03 21:37:37;;;;;;;0.63;0.22;;;;;;;19.39;71.12;99573.25;10506770;28;20060;-70
2023/08/03 21:42:38;;;;;;;0.68;0.35;;;;;;;19.37;71.75;99577.28;10505714;28;20429;-69
2023/08/03 21:47:39;;;;;;;1.55;0.30;;;;;;;19.42;71.63;99580.09;10504636;28;20067;-72
2023/08/03 21:52:41;;;;;;;1.15;0.73;;;;;;;19.49;71.76;99580.72;10505652;28;20048;-72
2023/08/03 21:57:42;;;;;;;0.85;0.40;;;;;;;19.50;71.71;99587.81;10504420;28;20075;-71
2023/08/03 22:02:44;;;;;;;1.75;0.30;;;;;;;19.48;71.62;99600.88;10503787;28;20054;-70
2023/08/03 22:07:45;;;;;;;0.73;0.20;;;;;;;19.48;71.55;99605.50;10504155;28;20127;-71
2023/08/03 22:12:48;;;;;;;5.43;0.20;;;;;;;19.49;71.59;99608.00;10504501;28;20420;-70
2023/08/03 22:17:50;;;;;;;2.58;0.30;;;;;;;19.48;71.80;99617.22;10502655;28;20104;-72
2023/08/03 22:22:51;;;;;;;0.82;0.20;;;;;;;19.49;71.69;99623.50;10503846;28;20086;-72
2023/08/03 22:27:53;;;;;;;4.05;0.20;;;;;;;19.44;72.00;99632.44;10505031;28;20052;-71
2023/08/03 22:32:55;;;;;;;0.32;0.28;;;;;;;19.39;72.33;99635.09;10503775;28;20387;-71
2023/08/03 22:37:57;;;;;;;3.08;0.30;;;;;;;19.41;72.35;99641.13;10502742;28;20352;-71
2023/08/03 22:42:59;;;;;;;1.42;0.20;;;;;;;19.47;71.96;99639.28;10503266;28;20046;-71
2023/08/03 22:48:00;;;;;;;1.63;0.30;;;;;;;19.47;72.03;99636.56;10504699;28;20036;-69
2023/08/03 22:53:04;;;;;;;1.30;0.30;;;;;;;19.45;71.98;99625.94;10501906;28;20128;-69
2023/08/03 22:58:06;;;;;;;0.55;0.20;;;;;;;19.49;71.82;99637.97;10503255;28;20056;-71
2023/08/03 23:03:07;;;;;;;0.70;0.30;;;;;;;19.48;71.79;99647.22;10501993;28;20052;-71
2023/08/03 23:08:09;;;;;;;0.20;0.20;;;;;;;19.36;72.36;99647.34;10509417;28;20040;-71
2023/08/03 23:13:10;;;;;;;0.73;0.30;;;;;;;19.41;71.96;99641.13;10511858;28;20127;-71
2023/08/03 23:18:12;;;;;;;1.80;0.30;;;;;;;19.44;71.99;99639.81;10511684;28;20396;-71
2023/08/03 23:23:13;;;;;;;1.40;0.30;;;;;;;19.33;72.14;99644.28;10511892;28;20111;-70
2023/08/03 23:28:15;;;;;;;1.00;0.40;;;;;;;19.33;72.08;99657.91;10509733;28;20345;-71